Ming Yang — HORH — position and weather

sailwx.info

Track history (hours):
 
Tides and Currents Weather Stations Pressure Air Temp Water Temp Dewpoint Dewpoint Depression Visibility Wind Speed Wind Dir Waves Ship Positions

Ming Yang

Last reported at 2018-Jan-18 03:45 UTC. Time now 2018-Jan-21 20:26 UTC.
Position N 34°03' E 130°01'.

Length 80 m; draft 5.6 m.

Type: Cargo ship. MMSI: 356216000.

Date/timePositionNaut miles runAvg speedWind from/ knotsBaromVisibWave heightAir tempDewpointWater temp
2018-Jan-18 03:45N 34°03' E 130°01'2 8.7
2018-Jan-18 03:30N 34°03' E 130°03'4 8.9
2018-Jan-18 03:00N 34°03' E 130°09'4 9.0
2018-Jan-18 02:30N 34°04' E 130°14'5 9.0
2018-Jan-18 02:00N 34°04' E 130°19'5 9.1
2018-Jan-18 01:30N 34°04' E 130°25'4 9.2
2018-Jan-18 01:00N 34°03' E 130°30'9 9.2
2018-Jan-18 00:00N 34°03' E 130°41'0 9.5
2018-Jan-17 23:58N 34°03' E 130°42'  
2018-Jan-12 15:00N 33°45' E 131°45'611.4
2018-Jan-12 14:30N 33°46' E 131°38'611.3
2018-Jan-12 14:00N 33°47' E 131°32'611.1
2018-Jan-12 13:30N 33°49' E 131°25'511.1
2018-Jan-12 13:00N 33°50' E 131°19'611.2
2018-Jan-12 12:30N 33°51' E 131°12'611.1
2018-Jan-12 12:00N 33°54' E 131°07'510.6
2018-Jan-12 11:30N 33°58' E 131°02'4 8.6
2018-Jan-12 11:00N 33°57' E 130°57'3 6.7
2018-Jan-12 10:30N 33°55' E 130°53'5 9.8
2018-Jan-12 10:00N 33°59' E 130°50'510.6
2018-Jan-12 09:30N 34°04' E 130°47'510.7
2018-Jan-12 09:00N 34°08' E 130°43'510.7
2018-Jan-12 08:30N 34°12' E 130°39'510.6
2018-Jan-12 08:00N 34°16' E 130°35'510.5
2018-Jan-12 07:30N 34°20' E 130°31'  
Track history (hours):
 
Tides and Currents Weather Stations Pressure Air Temp Water Temp Dewpoint Dewpoint Depression Visibility Wind Speed Wind Dir Waves Ship Positions

Ming Yang

Last reported at 2018-Jan-18 03:45 UTC. Time now 2018-Jan-21 20:26 UTC.
Position N 34°03' E 130°01'.

Length 80 m; draft 5.6 m.

Type: Cargo ship. MMSI: 356216000.

Date/timePositionNaut miles runAvg speedWind from/ knotsBaromVisibWave heightAir tempDewpointWater temp
2018-Jan-18 03:45N 34°03' E 130°01'2 8.7
2018-Jan-18 03:30N 34°03' E 130°03'4 8.9
2018-Jan-18 03:00N 34°03' E 130°09'4 9.0
2018-Jan-18 02:30N 34°04' E 130°14'5 9.0
2018-Jan-18 02:00N 34°04' E 130°19'5 9.1
2018-Jan-18 01:30N 34°04' E 130°25'4 9.2
2018-Jan-18 01:00N 34°03' E 130°30'9 9.2
2018-Jan-18 00:00N 34°03' E 130°41'0 9.5
2018-Jan-17 23:58N 34°03' E 130°42'  
2018-Jan-12 15:00N 33°45' E 131°45'611.4
2018-Jan-12 14:30N 33°46' E 131°38'611.3
2018-Jan-12 14:00N 33°47' E 131°32'611.1
2018-Jan-12 13:30N 33°49' E 131°25'511.1
2018-Jan-12 13:00N 33°50' E 131°19'611.2
2018-Jan-12 12:30N 33°51' E 131°12'611.1
2018-Jan-12 12:00N 33°54' E 131°07'510.6
2018-Jan-12 11:30N 33°58' E 131°02'4 8.6
2018-Jan-12 11:00N 33°57' E 130°57'3 6.7
2018-Jan-12 10:30N 33°55' E 130°53'5 9.8
2018-Jan-12 10:00N 33°59' E 130°50'510.6
2018-Jan-12 09:30N 34°04' E 130°47'510.7
2018-Jan-12 09:00N 34°08' E 130°43'510.7
2018-Jan-12 08:30N 34°12' E 130°39'510.6
2018-Jan-12 08:00N 34°16' E 130°35'510.5
2018-Jan-12 07:30N 34°20' E 130°31'  

Dump ship's entire track history